Terminal Aerodrome Forecast
Issued by NWS

Home | Current Version | Previous Version | Text Only | Print | Product List | Glossary On
Versions: 1 2 3 4 5 6 7 8 9 10 11 12 13
000
FTUS45 KRIW 232300
TAFWRL
TAF
KWRL 232320Z 2400/2424 VRB10G15KT P6SM -TSRA SCT030 BKN050CB
     FM240200 35007KT P6SM -SHRA SCT015 BKN040
     FM240900 35015KT 5SM -RA BR SCT013 OVC025
     FM241800 35018KT P6SM VCTS SCT020CB BKN050=

USA.gov is the U.S. government's official web portal to all federal, state and local government web resources and services.